LOWS/SZG METAR and TAF weather

Enter ICAO airport designator
Station Type Date Time Source
LOWS METAR 2023/02/06 19:50 UTC NOAA

LOWS 061950Z AUTO 29004KT 9999 FEW028 BKN034 M02/M05 Q1035 NOSIG


Station Type Date Time Source
LOWS Decoded METAR 2023/02/06 19:50 UTC NOAA

Salzburg-Flughafen, Austria (LOWS) 47-48N 013-00E 450M
Feb 06, 2023 - 02:50 PM EST / 2023.02.06 1950 UTC
Wind: from the WNW (290 degrees) at 5 MPH (4 KT):0
Visibility: greater than 7 mile(s):0
Sky conditions: mostly cloudy
Temperature: 28 F (-2 C)
Windchill: 23 F (-5 C):1
Dew Point: 23 F (-5 C)
Relative Humidity: 79%
Pressure (altimeter): 30.56 in. Hg (1035 hPa)
ob: LOWS 061950Z AUTO 29004KT 9999 FEW028 BKN034 M02/M05 Q1035 NOSIG
cycle: 20

Station Type Date Time Source
LOWS TAF 2023/02/06 18:33 UTC NOAA

TAF LOWS 061715Z 0618/0718 33005KT 9999 BKN040 TXM00/0714Z TNM08/0705Z
TEMPO 0618/0620 15005KT
BECMG 0622/0624 CAVOK
BECMG 0708/0710 04006KT

Example: see airport list